Time;durP1;ratioP1;P1;durP2;ratioP2;P2;SDS_P1;SDS_P2;PMS_P1;PMS_P2;Temp;Humidity;BMP_temperature;BMP_pressure;BME280_temperature;BME280_humidity;BME280_pressure;Samples;Min_cycle;Max_cycle;Signal;HPM_P1;HPM_P2
2021/03/07 00:01:24;;;;;;;11.15;4.80;;;;;;;1.76;39.75;95784.63;5128065;23;20031;-84
2021/03/07 00:03:25;;;;;;;9.05;4.88;;;;;;;1.74;39.59;95786.44;5153692;23;20048;-83
2021/03/07 00:05:26;;;;;;;8.15;5.00;;;;;;;1.63;39.71;95785.28;5119606;23;20623;-84
2021/03/07 00:07:27;;;;;;;9.05;4.40;;;;;;;1.62;39.56;95790.50;5145611;23;20025;-85
2021/03/07 00:09:29;;;;;;;7.05;4.93;;;;;;;1.61;39.67;95800.00;5119607;23;20063;-83
2021/03/07 00:11:30;;;;;;;7.50;4.80;;;;;;;1.61;40.17;95796.56;5141980;23;20035;-70
2021/03/07 00:13:31;;;;;;;7.47;4.50;;;;;;;1.54;40.20;95800.38;5139441;23;20294;-71
2021/03/07 00:15:32;;;;;;;8.23;5.00;;;;;;;1.43;40.10;95795.75;5139355;23;20374;-70
2021/03/07 00:17:34;;;;;;;10.38;5.07;;;;;;;1.50;40.07;95796.28;5112222;23;20025;-71
2021/03/07 00:19:35;;;;;;;8.10;5.00;;;;;;;1.66;39.84;95793.75;5112679;23;20076;-70
2021/03/07 00:21:37;;;;;;;7.60;5.03;;;;;;;1.55;39.96;95787.41;5139473;23;20066;-70
2021/03/07 00:23:39;;;;;;;6.80;5.20;;;;;;;1.46;39.99;95790.44;5139457;23;20029;-70
2021/03/07 00:25:40;;;;;;;6.65;4.90;;;;;;;1.48;39.91;95788.59;5139045;23;20035;-71
2021/03/07 00:27:42;;;;;;;8.18;5.28;;;;;;;1.33;40.52;95791.97;5139618;23;20382;-72
2021/03/07 00:29:43;;;;;;;7.60;5.07;;;;;;;1.35;40.08;95790.97;5113184;23;20035;-70
2021/03/07 00:31:44;;;;;;;9.25;5.28;;;;;;;1.31;40.89;95783.44;5137028;23;20020;-70
2021/03/07 00:33:45;;;;;;;9.38;5.38;;;;;;;1.38;40.52;95787.41;5112719;23;20025;-73
2021/03/07 00:35:47;;;;;;;7.22;4.88;;;;;;;1.46;40.43;95785.25;5113203;23;20198;-71
2021/03/07 00:37:48;;;;;;;8.27;4.97;;;;;;;1.59;40.51;95785.47;5113216;23;20017;-70
2021/03/07 00:39:49;;;;;;;10.55;5.65;;;;;;;1.09;40.91;95779.34;5139713;23;20469;-70
2021/03/07 00:41:50;;;;;;;8.57;5.32;;;;;;;0.95;41.90;95786.94;5138959;23;20024;-71
2021/03/07 00:43:52;;;;;;;8.68;5.15;;;;;;;1.08;41.48;95777.69;5139072;23;20024;-69
2021/03/07 00:45:53;;;;;;;8.02;5.18;;;;;;;1.25;41.14;95773.44;5110988;23;20532;-71
2021/03/07 00:47:55;;;;;;;10.15;4.60;;;;;;;1.28;41.27;95776.69;5139146;23;20021;-71
2021/03/07 00:49:56;;;;;;;7.80;5.05;;;;;;;1.31;40.84;95763.66;5111893;23;20033;-70
2021/03/07 00:51:59;;;;;;;7.65;5.28;;;;;;;1.35;40.55;95767.72;5138380;23;20031;-71
2021/03/07 00:54:01;;;;;;;10.38;5.13;;;;;;;1.30;40.86;95766.31;5140280;23;20102;-70
2021/03/07 00:56:02;;;;;;;9.25;5.40;;;;;;;1.21;41.27;95760.69;5139473;23;20024;-71
2021/03/07 00:58:03;;;;;;;8.18;5.30;;;;;;;1.17;41.38;95763.50;5139896;23;20028;-71
2021/03/07 01:00:11;;;;;;;10.80;4.30;;;;;;;1.18;41.08;95762.56;5137588;23;20027;-71
2021/03/07 01:02:12;;;;;;;9.77;5.25;;;;;;;1.12;40.96;95762.88;5111204;23;20032;-71
2021/03/07 01:04:14;;;;;;;7.18;4.38;;;;;;;1.18;40.62;95758.28;5115327;23;20025;-83
2021/03/07 01:06:15;;;;;;;9.32;5.50;;;;;;;1.25;40.58;95752.78;5144770;23;20454;-84
2021/03/07 01:08:17;;;;;;;8.77;4.80;;;;;;;1.17;40.65;95758.34;5143678;23;20032;-82
2021/03/07 01:10:22;;;;;;;9.48;5.32;;;;;;;1.12;40.59;95752.56;5144930;23;20032;-83
2021/03/07 01:12:23;;;;;;;7.45;4.88;;;;;;;1.14;40.53;95750.72;5119594;23;20021;-86
2021/03/07 01:14:24;;;;;;;11.13;5.32;;;;;;;1.14;41.03;95759.34;5144460;23;20052;-85
2021/03/07 01:16:25;;;;;;;6.97;4.70;;;;;;;1.01;40.84;95750.50;5145096;23;20059;-82
2021/03/07 01:18:27;;;;;;;7.93;5.05;;;;;;;1.00;41.00;95756.59;5118455;23;20031;-83
2021/03/07 01:20:28;;;;;;;6.93;4.70;;;;;;;1.03;41.16;95748.69;5119151;23;20505;-83
2021/03/07 01:22:29;;;;;;;7.93;5.00;;;;;;;1.12;40.81;95753.41;5146493;23;20323;-84
2021/03/07 01:24:30;;;;;;;7.95;4.97;;;;;;;1.11;40.93;95751.72;5120910;23;20024;-84
2021/03/07 01:26:32;;;;;;;10.13;5.30;;;;;;;1.19;40.76;95753.94;5149135;23;20017;-83
2021/03/07 01:28:33;;;;;;;7.80;5.28;;;;;;;1.21;40.66;95752.94;5126791;23;20012;-83
2021/03/07 01:30:37;;;;;;;9.15;4.70;;;;;;;1.29;40.48;95749.13;5128117;23;20550;-85
2021/03/07 01:32:39;;;;;;;7.63;5.00;;;;;;;1.23;40.68;95745.97;5118082;23;20024;-83
2021/03/07 01:34:40;;;;;;;6.75;4.72;;;;;;;1.26;40.25;95746.72;5146042;23;20028;-84
2021/03/07 01:36:41;;;;;;;8.05;4.72;;;;;;;1.28;40.20;95747.47;5118579;23;20017;-83
2021/03/07 01:38:42;;;;;;;7.20;5.13;;;;;;;1.27;40.91;95743.22;5145993;23;20052;-83
2021/03/07 01:40:46;;;;;;;8.63;4.93;;;;;;;1.27;40.47;95743.22;5145017;23;20033;-85
2021/03/07 01:42:50;;;;;;;6.65;5.25;;;;;;;1.13;40.63;95734.41;5143002;23;20024;-69
2021/03/07 01:44:51;;;;;;;8.32;5.28;;;;;;;1.15;40.97;95736.94;5113101;23;20050;-71
2021/03/07 01:46:52;;;;;;;9.00;4.90;;;;;;;1.13;40.66;95731.84;5136486;23;20029;-70
2021/03/07 01:48:53;;;;;;;7.80;5.00;;;;;;;1.04;41.09;95728.88;5139148;23;20088;-70
2021/03/07 01:50:55;;;;;;;8.57;5.10;;;;;;;1.02;40.57;95726.38;5138087;23;20028;-72
2021/03/07 01:52:57;;;;;;;9.23;4.15;;;;;;;1.07;40.95;95729.56;5138477;23;20245;-70
2021/03/07 01:54:58;;;;;;;5.95;4.72;;;;;;;1.13;40.75;95716.34;5113313;23;20035;-70
2021/03/07 01:57:01;;;;;;;8.13;5.00;;;;;;;1.11;40.61;95720.75;5138257;23;20016;-70
2021/03/07 01:59:02;;;;;;;7.80;5.20;;;;;;;1.19;40.13;95718.63;5112606;23;20028;-71
2021/03/07 02:01:05;;;;;;;7.32;4.78;;;;;;;1.07;40.46;95719.22;5137188;23;20025;-70
2021/03/07 02:03:06;;;;;;;7.00;4.73;;;;;;;1.19;40.44;95717.81;5138992;23;20100;-71
2021/03/07 02:05:10;;;;;;;7.47;4.85;;;;;;;1.20;40.59;95707.38;5113199;23;20240;-70
2021/03/07 02:07:11;;;;;;;8.05;5.00;;;;;;;1.02;40.42;95716.06;5111874;23;20023;-71
2021/03/07 02:09:12;;;;;;;7.68;5.07;;;;;;;1.09;40.62;95706.25;5113411;23;20593;-72
2021/03/07 02:11:14;;;;;;;7.60;5.05;;;;;;;1.16;40.43;95711.06;5139002;23;20075;-69
2021/03/07 02:13:18;;;;;;;7.05;5.18;;;;;;;1.18;40.48;95713.53;5090199;23;20022;-71
2021/03/07 02:15:19;;;;;;;6.90;4.65;;;;;;;1.16;40.26;95707.63;5137370;23;20056;-70
2021/03/07 02:17:27;;;;;;;8.00;5.15;;;;;;;1.06;40.55;95706.44;5115096;23;20251;-70
2021/03/07 02:19:33;;;;;;;8.73;5.22;;;;;;;1.06;40.50;95707.25;5114001;23;20474;-71
2021/03/07 02:21:47;;;;;;;7.70;4.95;;;;;;;0.94;40.57;95700.94;5114848;23;20064;-70
2021/03/07 02:24:08;;;;;;;9.55;5.20;;;;;;;1.01;40.46;95706.63;5113793;23;20044;-69
2021/03/07 02:26:09;;;;;;;7.80;4.43;;;;;;;1.04;40.57;95703.91;5141364;23;20078;-70
2021/03/07 02:28:10;;;;;;;8.77;4.88;;;;;;;1.07;40.45;95703.75;5113310;23;20544;-70
2021/03/07 02:30:13;;;;;;;7.82;5.50;;;;;;;0.89;40.35;95704.69;5089093;23;20022;-70
2021/03/07 08:32:39;;;;;;;17.80;10.75;;;;;;;2.35;41.05;95604.00;5137794;23;20473;-87
2021/03/07 08:34:44;;;;;;;17.98;11.35;;;;;;;2.28;41.41;95600.94;5120825;23;20024;-86
2021/03/07 08:36:55;;;;;;;15.82;10.50;;;;;;;2.25;41.70;95590.75;5113114;23;20059;-71
2021/03/07 08:38:56;;;;;;;20.40;10.75;;;;;;;2.12;43.18;95600.09;5086188;23;20224;-72
2021/03/07 08:40:58;;;;;;;15.07;10.80;;;;;;;2.43;41.39;95591.44;5112959;23;20367;-72
2021/03/07 08:43:21;;;;;;;17.17;11.52;;;;;;;2.76;40.72;95593.03;5088098;23;20464;-72
2021/03/07 08:45:24;;;;;;;20.15;11.52;;;;;;;2.46;41.02;95586.94;5086113;23;20057;-71
2021/03/07 08:47:52;;;;;;;17.02;11.52;;;;;;;2.52;41.31;95579.72;5061497;23;20025;-72
2021/03/07 08:49:53;;;;;;;18.13;11.20;;;;;;;2.81;41.07;95581.47;5104825;23;20025;-71
2021/03/07 08:52:01;;;;;;;18.30;11.02;;;;;;;3.02;40.42;95575.94;5087453;23;20022;-70
2021/03/07 08:54:10;;;;;;;16.98;11.70;;;;;;;3.10;39.97;95576.31;5087884;23;20025;-72
2021/03/07 08:56:13;;;;;;;14.25;10.40;;;;;;;3.36;39.79;95573.91;5087105;23;20344;-71
2021/03/07 08:58:14;;;;;;;18.67;10.48;;;;;;;3.36;39.19;95563.56;5087182;23;20447;-73
2021/03/07 09:00:17;;;;;;;18.58;12.05;;;;;;;3.06;39.44;95564.50;5111828;23;20055;-71
2021/03/07 09:02:22;;;;;;;20.95;11.68;;;;;;;3.40;39.63;95560.69;5112202;23;20025;-72
2021/03/07 09:04:32;;;;;;;16.33;10.27;;;;;;;3.33;39.84;95561.13;5089263;23;20033;-73
2021/03/07 09:06:36;;;;;;;18.38;11.02;;;;;;;3.59;39.05;95550.03;5113832;23;20107;-72
2021/03/07 09:08:37;;;;;;;15.77;11.40;;;;;;;3.92;38.19;95551.41;5116857;23;20029;-87
2021/03/07 09:10:40;;;;;;;17.15;10.70;;;;;;;3.34;39.20;95547.28;5120625;23;20025;-85
2021/03/07 09:12:41;;;;;;;17.65;10.27;;;;;;;3.23;39.11;95548.75;5119084;23;20454;-85
2021/03/07 09:14:42;;;;;;;15.63;10.88;;;;;;;3.21;39.36;95539.44;5092907;23;20080;-85
2021/03/07 09:16:47;;;;;;;16.38;11.65;;;;;;;3.07;40.14;95543.66;5118039;23;20024;-85
2021/03/07 09:18:49;;;;;;;14.40;10.23;;;;;;;3.53;39.63;95539.19;5093966;23;20105;-87
2021/03/07 09:20:57;;;;;;;21.42;11.32;;;;;;;3.81;38.71;95533.94;5121535;23;20028;-88
2021/03/07 09:22:59;;;;;;;16.65;10.88;;;;;;;3.82;38.79;95529.59;5120539;23;20025;-84
2021/03/07 09:25:07;;;;;;;17.75;10.82;;;;;;;3.76;39.05;95522.19;5120984;23;20394;-85
2021/03/07 09:27:12;;;;;;;18.85;9.93;;;;;;;4.08;38.43;95525.31;5120340;23;20017;-86
2021/03/07 09:29:13;;;;;;;17.05;10.85;;;;;;;4.40;37.66;95515.44;5121295;23;20029;-87
2021/03/07 09:31:19;;;;;;;16.27;11.00;;;;;;;4.61;38.23;95512.38;5070737;23;20029;-86
2021/03/07 09:33:33;;;;;;;16.13;10.40;;;;;;;4.39;37.07;95511.19;5117123;23;20025;-85
2021/03/07 09:35:36;;;;;;;18.50;11.13;;;;;;;3.61;38.38;95508.44;5152584;23;20502;-85
2021/03/07 09:37:37;;;;;;;16.13;11.05;;;;;;;3.47;39.25;95507.56;5151609;23;20025;-84
2021/03/07 09:39:45;;;;;;;14.30;10.02;;;;;;;3.81;38.72;95505.44;5146101;23;20358;-85
2021/03/07 09:41:49;;;;;;;17.42;10.93;;;;;;;3.69;38.66;95501.84;5119048;23;20025;-85
2021/03/07 09:43:50;;;;;;;16.23;10.30;;;;;;;3.80;38.54;95500.34;5144032;23;20040;-88
2021/03/07 09:45:52;;;;;;;17.27;9.90;;;;;;;3.65;39.33;95495.19;5117913;23;20020;-87
2021/03/07 09:47:54;;;;;;;16.02;10.80;;;;;;;3.85;38.79;95490.50;5117550;23;20017;-85
2021/03/07 09:49:56;;;;;;;14.48;9.90;;;;;;;3.52;39.49;95483.94;5123678;23;20451;-87
2021/03/07 09:51:57;;;;;;;17.40;10.73;;;;;;;4.03;38.48;95481.53;5119929;23;20025;-87
2021/03/07 09:53:59;;;;;;;15.90;11.27;;;;;;;4.47;37.82;95467.41;5150987;23;20148;-88
2021/03/07 09:56:00;;;;;;;16.38;10.07;;;;;;;4.93;37.80;95466.06;5129080;23;20478;-85
2021/03/07 09:58:04;;;;;;;20.10;10.95;;;;;;;5.18;36.46;95461.72;5127855;23;20017;-84
2021/03/07 10:00:06;;;;;;;20.02;11.02;;;;;;;5.52;36.40;95458.41;5154418;23;20056;-86
2021/03/07 10:02:07;;;;;;;17.02;10.10;;;;;;;5.86;36.48;95460.34;5153733;23;20076;-85
2021/03/07 10:04:24;;;;;;;21.70;10.65;;;;;;;6.12;36.32;95454.09;5151915;23;20059;-86
2021/03/07 10:06:29;;;;;;;14.75;10.80;;;;;;;6.27;35.11;95453.91;5146797;23;20025;-87
2021/03/07 10:08:32;;;;;;;14.50;10.57;;;;;;;6.39;35.37;95450.41;5122995;23;20455;-86
2021/03/07 10:10:33;;;;;;;13.80;10.73;;;;;;;6.52;34.64;95443.31;5150823;23;20032;-88
2021/03/07 10:12:41;;;;;;;14.68;10.70;;;;;;;6.73;34.99;95453.91;5148224;23;20021;-88
2021/03/07 10:14:51;;;;;;;15.85;9.70;;;;;;;6.94;34.08;95445.38;5144621;23;20021;-86
2021/03/07 10:16:53;;;;;;;16.27;10.35;;;;;;;7.17;33.07;95433.16;5117174;23;20048;-86
2021/03/07 10:19:14;;;;;;;15.75;10.70;;;;;;;6.80;33.90;95432.56;5122171;23;20082;-85
2021/03/07 10:21:15;;;;;;;14.38;10.07;;;;;;;6.66;34.26;95424.03;5123645;23;20036;-85
2021/03/07 10:23:16;;;;;;;15.80;10.00;;;;;;;6.89;33.70;95424.06;5143277;23;20028;-86
2021/03/07 10:25:25;;;;;;;13.88;10.10;;;;;;;7.06;33.68;95413.16;5092585;23;20030;-86
2021/03/07 10:27:31;;;;;;;15.02;9.93;;;;;;;7.31;33.77;95413.81;5144127;23;20021;-87
2021/03/07 10:29:38;;;;;;;15.55;9.95;;;;;;;7.11;33.48;95405.81;5119491;23;20028;-86
2021/03/07 10:31:57;;;;;;;14.85;10.27;;;;;;;6.69;34.13;95413.41;5116981;23;20072;-87
2021/03/07 10:33:58;;;;;;;14.88;10.40;;;;;;;6.58;33.89;95405.56;5125722;23;20025;-87
2021/03/07 10:36:08;;;;;;;20.13;10.88;;;;;;;6.75;33.92;95396.47;5121081;23;20458;-88
2021/03/07 10:38:29;;;;;;;12.77;9.95;;;;;;;6.90;33.98;95394.44;5121117;23;20024;-87
2021/03/07 10:40:33;;;;;;;13.68;9.88;;;;;;;6.84;34.27;95390.56;5121721;23;20029;-87
2021/03/07 10:42:37;;;;;;;17.10;10.52;;;;;;;6.28;34.91;95391.38;5093320;23;20060;-86
2021/03/07 10:44:40;;;;;;;15.80;10.52;;;;;;;6.49;35.19;95391.47;5093846;23;20029;-88
2021/03/07 10:46:42;;;;;;;13.77;10.45;;;;;;;6.75;34.70;95386.06;5093432;23;20032;-87
2021/03/07 10:49:04;;;;;;;15.27;10.05;;;;;;;6.04;34.75;95377.56;5075447;23;20070;-86
2021/03/07 10:51:05;;;;;;;14.48;10.82;;;;;;;5.15;36.41;95373.66;5069184;23;20057;-86
2021/03/07 10:53:06;;;;;;;14.43;10.45;;;;;;;5.05;37.60;95365.66;5119653;23;20028;-86
2021/03/07 10:55:14;;;;;;;18.23;11.70;;;;;;;4.68;38.21;95352.69;5093855;23;20031;-86
2021/03/07 10:57:17;;;;;;;16.23;11.18;;;;;;;5.00;38.03;95353.00;5092930;23;20021;-86
2021/03/07 10:59:18;;;;;;;15.48;10.70;;;;;;;5.62;37.07;95339.03;5092878;23;20080;-88
2021/03/07 11:01:19;;;;;;;16.38;10.68;;;;;;;6.13;36.06;95348.25;5121437;23;20028;-87
2021/03/07 11:03:20;;;;;;;13.85;9.88;;;;;;;6.42;36.07;95333.03;5119376;23;20021;-87
2021/03/07 11:05:22;;;;;;;15.40;10.13;;;;;;;6.74;35.44;95332.34;5122364;23;20123;-85
2021/03/07 11:07:23;;;;;;;14.63;10.32;;;;;;;6.71;35.05;95327.34;5126462;23;20083;-86
2021/03/07 11:09:24;;;;;;;14.50;10.35;;;;;;;6.74;35.26;95319.31;5122433;23;20100;-87
2021/03/07 11:11:25;;;;;;;14.73;10.73;;;;;;;6.79;35.21;95313.72;5096814;23;20025;-87
2021/03/07 11:13:26;;;;;;;14.07;10.20;;;;;;;6.74;34.88;95312.31;5125101;23;20025;-87
2021/03/07 11:15:28;;;;;;;18.55;10.45;;;;;;;6.93;34.95;95308.28;5122307;23;20029;-86
2021/03/07 11:17:29;;;;;;;13.25;10.05;;;;;;;7.18;34.48;95307.13;5122693;23;20025;-89
2021/03/07 11:19:30;;;;;;;16.63;10.25;;;;;;;6.52;34.39;95307.97;5124617;23;20053;-85
2021/03/07 11:21:32;;;;;;;13.80;9.85;;;;;;;6.34;35.29;95302.41;5126841;23;20024;-84
2021/03/07 11:23:34;;;;;;;14.35;9.48;;;;;;;6.26;35.73;95294.38;5103855;23;20422;-85
2021/03/07 11:25:35;;;;;;;14.63;10.55;;;;;;;6.12;36.30;95295.41;5078089;23;20033;-87
2021/03/07 11:27:37;;;;;;;14.20;9.73;;;;;;;6.30;35.90;95292.34;5100243;23;20069;-85
2021/03/07 11:29:38;;;;;;;15.20;10.18;;;;;;;6.58;35.66;95285.81;5099780;23;20104;-86
2021/03/07 11:31:39;;;;;;;13.35;10.38;;;;;;;6.49;35.73;95287.38;5095347;23;20068;-85
2021/03/07 11:33:41;;;;;;;17.95;10.68;;;;;;;6.36;36.07;95276.25;5088470;23;20052;-87
2021/03/07 11:35:42;;;;;;;14.15;9.85;;;;;;;6.42;36.12;95282.78;5153282;23;20025;-72
2021/03/07 11:37:43;;;;;;;19.08;9.95;;;;;;;6.66;35.68;95267.00;5139730;23;20027;-72
2021/03/07 11:39:44;;;;;;;15.18;11.32;;;;;;;6.78;35.87;95270.44;5138061;23;20071;-73
2021/03/07 11:41:46;;;;;;;14.13;10.50;;;;;;;6.99;35.90;95263.50;5138644;23;20040;-72
2021/03/07 11:43:47;;;;;;;15.05;10.32;;;;;;;7.06;35.12;95263.84;5137696;23;20038;-72
2021/03/07 11:45:48;;;;;;;15.18;10.23;;;;;;;7.10;35.37;95250.44;5137345;23;20592;-73
2021/03/07 11:47:50;;;;;;;15.77;11.00;;;;;;;6.81;35.14;95249.34;5138417;23;20092;-72
2021/03/07 11:49:51;;;;;;;15.60;11.25;;;;;;;6.45;36.95;95235.69;5137957;23;20024;-71
2021/03/07 11:51:52;;;;;;;11.45;9.38;;;;;;;6.43;36.78;95243.63;5138552;23;20349;-74
2021/03/07 11:53:54;;;;;;;16.23;10.43;;;;;;;6.40;36.98;95241.25;5138460;23;20024;-73
2021/03/07 11:55:55;;;;;;;14.10;10.38;;;;;;;6.72;37.02;95230.06;5112759;23;20025;-71
2021/03/07 11:57:56;;;;;;;14.52;10.50;;;;;;;6.95;36.08;95223.84;5138031;23;20025;-72
2021/03/07 11:59:57;;;;;;;14.88;10.25;;;;;;;6.90;36.11;95223.38;5138312;23;20051;-71
2021/03/07 12:01:59;;;;;;;13.63;10.25;;;;;;;6.50;36.17;95215.34;5137150;23;20020;-71
2021/03/07 12:04:01;;;;;;;19.05;11.43;;;;;;;6.48;36.78;95220.66;5112233;23;20044;-73
2021/03/07 12:06:02;;;;;;;13.52;10.43;;;;;;;6.68;36.17;95218.25;5112952;23;20025;-73
2021/03/07 12:08:04;;;;;;;17.25;10.85;;;;;;;6.40;37.07;95209.19;5111983;23;20067;-71
2021/03/07 12:10:05;;;;;;;14.82;10.35;;;;;;;6.30;37.19;95203.88;5138670;23;20059;-72
2021/03/07 12:12:07;;;;;;;15.68;9.88;;;;;;;6.07;37.65;95208.28;5137534;23;20039;-72
2021/03/07 12:14:08;;;;;;;13.95;10.27;;;;;;;6.00;37.67;95207.94;5138819;23;20024;-72
2021/03/07 12:16:09;;;;;;;14.23;10.82;;;;;;;6.08;37.25;95200.34;5110883;23;20081;-73
2021/03/07 12:18:11;;;;;;;15.50;10.90;;;;;;;6.30;37.39;95203.88;5138283;23;20020;-71
2021/03/07 12:20:12;;;;;;;14.43;11.00;;;;;;;6.14;37.70;95199.88;5137774;23;20021;-72
2021/03/07 12:22:14;;;;;;;14.35;10.13;;;;;;;6.23;37.42;95197.50;5112471;23;20084;-69
2021/03/07 12:24:15;;;;;;;13.13;9.98;;;;;;;6.46;37.61;95185.28;5142187;23;20079;-87
2021/03/07 12:26:16;;;;;;;16.15;9.95;;;;;;;6.88;37.24;95188.84;5147079;23;20028;-86
2021/03/07 12:28:18;;;;;;;16.52;10.63;;;;;;;6.99;36.29;95187.97;5120198;23;20044;-87
2021/03/07 12:30:19;;;;;;;15.05;9.85;;;;;;;7.30;35.99;95182.84;5144354;23;20466;-86
2021/03/07 12:32:20;;;;;;;14.38;9.90;;;;;;;7.52;35.07;95172.25;5144245;23;20021;-86
2021/03/07 12:34:22;;;;;;;16.23;11.07;;;;;;;7.76;35.57;95173.75;5121246;23;20025;-86
2021/03/07 12:36:23;;;;;;;15.00;10.57;;;;;;;7.96;35.68;95159.84;5122009;23;20025;-87
2021/03/07 12:38:24;;;;;;;15.98;10.88;;;;;;;7.92;35.42;95163.69;5122096;23;20017;-85
2021/03/07 12:40:26;;;;;;;18.60;11.13;;;;;;;7.97;35.12;95158.06;5119341;23;20025;-85
2021/03/07 12:42:27;;;;;;;15.98;10.50;;;;;;;8.04;35.11;95151.34;5094381;23;20025;-85
2021/03/07 12:44:28;;;;;;;15.75;9.75;;;;;;;7.90;34.58;95151.72;5069427;23;20126;-87
2021/03/07 12:46:31;;;;;;;14.50;9.70;;;;;;;7.12;35.87;95156.50;5118445;23;20330;-85
2021/03/07 12:48:32;;;;;;;14.93;10.63;;;;;;;7.12;36.07;95149.53;5116004;23;20205;-72
2021/03/07 12:50:37;;;;;;;15.48;10.80;;;;;;;7.43;35.98;95141.75;5114726;23;20184;-70
2021/03/07 12:52:38;;;;;;;19.38;11.25;;;;;;;7.59;36.00;95134.31;5114374;23;20051;-71
2021/03/07 12:54:40;;;;;;;15.63;10.15;;;;;;;7.74;35.52;95142.59;5086564;23;20576;-72
2021/03/07 12:56:41;;;;;;;14.10;9.93;;;;;;;7.71;35.33;95134.22;5113725;23;20205;-71
2021/03/07 12:58:42;;;;;;;15.68;10.35;;;;;;;7.78;35.98;95130.94;5114065;23;20028;-71
2021/03/07 13:00:43;;;;;;;14.90;10.18;;;;;;;7.83;35.28;95120.13;5086092;23;20021;-72
2021/03/07 13:02:44;;;;;;;20.10;12.02;;;;;;;7.98;34.89;95120.59;5113158;23;20021;-70
2021/03/07 13:04:46;;;;;;;15.20;10.90;;;;;;;8.05;35.01;95111.25;5085791;23;20029;-71
2021/03/07 13:06:47;;;;;;;15.50;10.02;;;;;;;8.15;35.22;95112.13;5113991;23;20332;-72
2021/03/07 13:08:49;;;;;;;19.80;10.00;;;;;;;8.09;35.07;95102.22;5090193;23;20116;-88
2021/03/07 13:10:50;;;;;;;16.27;10.55;;;;;;;8.16;35.45;95100.72;5120912;23;20032;-86
2021/03/07 13:12:52;;;;;;;16.75;11.48;;;;;;;8.31;35.07;95101.16;5094118;23;20093;-87
2021/03/07 13:14:53;;;;;;;16.77;10.13;;;;;;;8.33;34.90;95095.81;5119246;23;20036;-86
2021/03/07 13:16:54;;;;;;;15.10;11.02;;;;;;;8.28;35.01;95095.38;5118070;23;20028;-86
2021/03/07 13:18:56;;;;;;;18.85;10.20;;;;;;;8.29;35.15;95097.84;5118854;23;20037;-86
2021/03/07 13:20:57;;;;;;;17.27;10.45;;;;;;;8.26;34.99;95094.66;5120425;23;20075;-91
2021/03/07 13:22:58;;;;;;;15.40;10.80;;;;;;;8.20;36.15;95088.22;5119711;23;20028;-87
2021/03/07 13:24:59;;;;;;;14.02;9.77;;;;;;;8.19;35.73;95084.78;5120965;23;20029;-86
2021/03/07 13:27:01;;;;;;;18.08;10.75;;;;;;;8.23;35.71;95082.72;5087798;23;20026;-71
2021/03/07 13:29:02;;;;;;;19.20;10.95;;;;;;;8.08;35.31;95084.06;5113759;23;20040;-70
2021/03/07 13:31:03;;;;;;;14.52;9.95;;;;;;;8.15;35.75;95075.59;5110534;23;20283;-71
2021/03/07 13:33:05;;;;;;;14.02;10.02;;;;;;;8.25;35.59;95077.38;5062206;23;20157;-73
2021/03/07 13:35:07;;;;;;;16.23;10.18;;;;;;;7.85;36.15;95068.66;5110597;23;20017;-70
2021/03/07 13:37:08;;;;;;;15.55;10.38;;;;;;;7.72;36.17;95068.88;5113351;23;20386;-72
2021/03/07 13:39:09;;;;;;;16.27;10.30;;;;;;;7.56;36.34;95068.53;5113696;23;20017;-73
2021/03/07 13:41:11;;;;;;;14.90;10.57;;;;;;;7.59;36.57;95068.28;5112587;23;20025;-71
2021/03/07 13:43:12;;;;;;;15.75;10.18;;;;;;;7.49;36.47;95064.81;5086626;23;20033;-72
2021/03/07 13:45:15;;;;;;;16.70;9.93;;;;;;;7.58;35.88;95061.41;5113190;23;20025;-70
2021/03/07 13:47:16;;;;;;;13.35;10.10;;;;;;;7.48;36.17;95056.16;5111118;23;20060;-71
2021/03/07 13:49:17;;;;;;;16.73;9.90;;;;;;;7.55;36.41;95059.91;5088162;23;20048;-71
2021/03/07 13:51:19;;;;;;;15.98;10.40;;;;;;;7.67;36.31;95052.78;5112048;23;20087;-72
2021/03/07 13:53:20;;;;;;;15.05;10.65;;;;;;;7.88;36.46;95054.50;5063622;23;20026;-73
2021/03/07 13:55:21;;;;;;;14.65;10.20;;;;;;;7.96;35.65;95049.47;5086008;23;20034;-72
2021/03/07 13:57:22;;;;;;;17.55;10.30;;;;;;;8.04;35.69;95053.97;5114611;23;20079;-73
2021/03/07 13:59:24;;;;;;;16.38;9.75;;;;;;;7.88;35.80;95044.91;5112398;23;20021;-72
2021/03/07 14:01:25;;;;;;;15.43;9.75;;;;;;;7.98;36.34;95047.53;5085785;23;20025;-72
2021/03/07 14:03:26;;;;;;;15.82;10.40;;;;;;;8.07;35.24;95049.34;5086392;23;20021;-72
2021/03/07 14:05:28;;;;;;;15.50;10.30;;;;;;;8.23;35.39;95045.38;5112934;23;20060;-74
2021/03/07 14:07:30;;;;;;;15.60;10.35;;;;;;;8.30;34.98;95052.53;5087342;23;20025;-73
2021/03/07 14:09:31;;;;;;;13.70;10.25;;;;;;;8.15;34.94;95046.88;5115432;23;20028;-73
2021/03/07 14:11:36;;;;;;;17.33;10.07;;;;;;;7.77;35.82;95051.06;5114036;23;20025;-71
2021/03/07 14:13:37;;;;;;;17.10;10.45;;;;;;;7.96;35.86;95039.03;5088813;23;20022;-73
2021/03/07 14:15:39;;;;;;;13.98;10.38;;;;;;;7.87;35.91;95039.81;5113906;23;20471;-71
2021/03/07 14:17:41;;;;;;;13.13;9.70;;;;;;;7.80;35.58;95039.53;5113502;23;20017;-72
2021/03/07 14:19:43;;;;;;;15.38;9.77;;;;;;;7.99;35.80;95036.13;5064854;23;20025;-72
2021/03/07 14:21:45;;;;;;;14.93;9.60;;;;;;;8.19;35.38;95035.22;5088251;23;20026;-71
2021/03/07 14:23:46;;;;;;;13.80;9.27;;;;;;;8.34;35.87;95029.56;5114400;23;20029;-72
2021/03/07 14:25:47;;;;;;;13.10;9.52;;;;;;;8.47;34.35;95024.09;5114288;23;20092;-73
2021/03/07 14:27:48;;;;;;;13.35;8.70;;;;;;;8.65;35.12;95024.22;5089160;23;20473;-74
2021/03/07 14:29:49;;;;;;;18.13;9.30;;;;;;;8.77;35.12;95012.66;5115060;23;20021;-72
2021/03/07 14:31:51;;;;;;;12.00;8.50;;;;;;;8.75;34.10;95020.63;5112324;23;20029;-74
2021/03/07 14:33:52;;;;;;;12.93;8.43;;;;;;;8.78;34.19;95006.50;5114760;23;20029;-69
2021/03/07 14:35:53;;;;;;;14.15;8.52;;;;;;;8.93;34.73;95012.91;5114652;23;20029;-71
2021/03/07 14:37:56;;;;;;;16.05;8.93;;;;;;;9.15;34.40;95010.94;5088931;23;20373;-72
2021/03/07 14:39:57;;;;;;;14.98;8.80;;;;;;;9.23;33.91;95004.03;5088553;23;20021;-73
2021/03/07 14:41:59;;;;;;;15.23;9.23;;;;;;;9.29;33.93;95000.03;5087738;23;20664;-74
2021/03/07 14:44:00;;;;;;;12.75;9.13;;;;;;;9.36;34.07;94997.66;5087829;23;20030;-72
2021/03/07 14:46:01;;;;;;;22.23;8.68;;;;;;;9.40;34.19;94991.97;5120436;23;20517;-84
2021/03/07 14:48:03;;;;;;;11.98;8.25;;;;;;;9.57;34.10;94992.16;5123037;23;20450;-86
2021/03/07 14:50:05;;;;;;;13.05;8.52;;;;;;;9.54;33.91;94989.84;5097360;23;20025;-87
2021/03/07 14:52:06;;;;;;;12.95;8.52;;;;;;;9.57;33.59;94989.53;5073968;23;20030;-87
2021/03/07 14:54:08;;;;;;;15.65;8.98;;;;;;;9.61;32.89;94983.91;5097283;23;20296;-86
2021/03/07 14:56:09;;;;;;;16.63;9.68;;;;;;;9.56;32.86;94985.28;5096208;23;20025;-88
2021/03/07 14:58:10;;;;;;;16.45;8.48;;;;;;;9.56;33.69;94980.06;5124143;23;20103;-88
2021/03/07 15:00:15;;;;;;;13.80;9.25;;;;;;;9.59;34.04;94980.59;5123980;23;20025;-87
2021/03/07 15:02:17;;;;;;;13.00;9.32;;;;;;;9.62;34.18;94982.09;5123373;23;20452;-85
2021/03/07 15:04:18;;;;;;;16.45;8.90;;;;;;;9.62;33.87;94979.50;5122464;23;20063;-85
2021/03/07 15:06:20;;;;;;;13.00;9.32;;;;;;;9.67;33.91;94979.03;5099268;23;20032;-88
2021/03/07 15:08:21;;;;;;;13.68;9.07;;;;;;;9.66;33.39;94977.38;5127460;23;20031;-86
2021/03/07 15:10:22;;;;;;;13.70;8.80;;;;;;;9.56;33.67;94969.59;5125130;23;20061;-87
2021/03/07 15:12:24;;;;;;;13.40;8.98;;;;;;;9.58;33.89;94970.28;5127012;23;20096;-85
2021/03/07 15:14:26;;;;;;;13.18;9.30;;;;;;;9.62;34.50;94972.47;5102138;23;20065;-86
2021/03/07 15:16:27;;;;;;;15.68;8.30;;;;;;;9.57;33.45;94960.78;5102574;23;20026;-86
2021/03/07 15:18:28;;;;;;;11.13;8.18;;;;;;;9.51;33.35;94956.97;5129835;23;20048;-89
2021/03/07 15:20:30;;;;;;;14.02;8.30;;;;;;;9.50;33.90;94962.34;5102693;23;20076;-85
2021/03/07 15:22:31;;;;;;;12.57;9.13;;;;;;;9.58;34.39;94957.22;5108856;23;20022;-85
2021/03/07 15:24:33;;;;;;;13.35;8.82;;;;;;;9.41;33.94;94964.84;5126519;23;20032;-85
2021/03/07 15:26:34;;;;;;;14.20;8.95;;;;;;;9.37;34.50;94960.88;5126224;23;20027;-86
2021/03/07 15:28:36;;;;;;;21.67;9.25;;;;;;;9.49;34.57;94955.47;5126245;23;20027;-86
2021/03/07 15:30:37;;;;;;;12.75;8.63;;;;;;;9.54;34.20;94948.81;5124976;23;20036;-85
2021/03/07 15:32:40;;;;;;;13.95;8.73;;;;;;;9.48;34.35;94944.16;5102619;23;20021;-85
2021/03/07 15:34:41;;;;;;;14.48;9.07;;;;;;;9.48;34.56;94944.16;5101951;23;20025;-84
2021/03/07 15:36:44;;;;;;;12.60;8.27;;;;;;;9.57;34.73;94942.47;5152214;23;20024;-85